メインページ
METAR-TAF:

METAR-TAF

空港 :

クウェート国際空港

クウェート, クウェート

緯度: 29-13N, 経度: 047-59E, 海抜: 55m

現時点の気象観測

当レポートは47分前の10:00(UTC)に作成
の風 12kt
気温 40°C
湿度 14%
気圧 1009 hPa
視程: 8000m
晴天

METAR: OKBK 211000Z 08012KT 8000 SKC 40/07 Q1009 NOSIG

時間: 13:47 (10:47 UTC)

予報

当レポートは6時間2分前の04:45(UTC)に作成
予報は21日の 06時(UTC)から 22日の 12時(UTC)まで有効
変向風 3kt
視程: 7000m
晴天
21日の 06時(UTC)から 21日の 12時(UTC)まで一時的に
北/北西の風 10kt

TAF: OKBK 210445Z 2106/2212 VRB03KT 7000 SKC TEMPO 2106/2112 33010KT

4,000以上の空港の気象観測と天気予報(METAR報とTAF報)

利用可能な観測所は地図上に黄色い丸と赤い丸で示す。

丸の上にカーソルを重ねると観測所名を参照できる。

次にクリックすると気象観測と天気予報を参照できる。

マップの切り替え:黒色「×」印の緑ボタンをクリックして拡大、「-」印の緑ボタンをクリックして縮小、緑色の三角印をクリックして隣りの地図に切り替え


METAR-TAF: